sensor_id;sensor_type;location;lat;lon;timestamp;P1;durP1;ratioP1;P2;durP2;ratioP2
43998;SDS011;51319;52.162;5.302;2023-11-19T00:01:35;39.97;;;9.43;;
43998;SDS011;51319;52.162;5.302;2023-11-19T00:04:02;43.28;;;8.75;;
43998;SDS011;51319;52.162;5.302;2023-11-19T00:06:31;44.25;;;8.77;;
43998;SDS011;51319;52.162;5.302;2023-11-19T00:08:58;44.15;;;7.90;;
43998;SDS011;51319;52.162;5.302;2023-11-19T00:11:26;45.47;;;7.75;;
43998;SDS011;51319;52.162;5.302;2023-11-19T00:13:53;39.63;;;7.50;;
43998;SDS011;51319;52.162;5.302;2023-11-19T00:16:20;39.28;;;7.13;;
43998;SDS011;51319;52.162;5.302;2023-11-19T00:18:48;44.60;;;8.35;;
43998;SDS011;51319;52.162;5.302;2023-11-19T00:21:16;44.42;;;7.78;;
43998;SDS011;51319;52.162;5.302;2023-11-19T00:23:43;33.25;;;7.05;;
43998;SDS011;51319;52.162;5.302;2023-11-19T00:26:10;48.22;;;7.82;;
43998;SDS011;51319;52.162;5.302;2023-11-19T00:28:37;37.38;;;7.55;;
43998;SDS011;51319;52.162;5.302;2023-11-19T00:31:05;39.40;;;7.65;;
43998;SDS011;51319;52.162;5.302;2023-11-19T00:33:32;39.88;;;7.22;;
43998;SDS011;51319;52.162;5.302;2023-11-19T00:35:59;51.35;;;9.18;;
43998;SDS011;51319;52.162;5.302;2023-11-19T00:38:26;39.25;;;7.32;;
43998;SDS011;51319;52.162;5.302;2023-11-19T00:40:53;59.53;;;8.90;;
43998;SDS011;51319;52.162;5.302;2023-11-19T00:43:20;58.20;;;7.90;;
43998;SDS011;51319;52.162;5.302;2023-11-19T00:45:48;46.33;;;7.68;;
43998;SDS011;51319;52.162;5.302;2023-11-19T00:48:18;48.88;;;8.00;;
43998;SDS011;51319;52.162;5.302;2023-11-19T00:50:45;59.63;;;8.98;;
43998;SDS011;51319;52.162;5.302;2023-11-19T00:53:12;39.03;;;7.82;;
43998;SDS011;51319;52.162;5.302;2023-11-19T00:55:39;60.67;;;8.55;;
43998;SDS011;51319;52.162;5.302;2023-11-19T00:58:09;50.03;;;7.38;;
43998;SDS011;51319;52.162;5.302;2023-11-19T01:00:36;53.35;;;8.38;;
43998;SDS011;51319;52.162;5.302;2023-11-19T01:03:03;54.47;;;9.50;;
43998;SDS011;51319;52.162;5.302;2023-11-19T01:05:30;51.72;;;7.57;;
43998;SDS011;51319;52.162;5.302;2023-11-19T01:07:58;58.05;;;8.55;;
43998;SDS011;51319;52.162;5.302;2023-11-19T01:10:25;66.63;;;9.52;;
43998;SDS011;51319;52.162;5.302;2023-11-19T01:12:52;55.90;;;7.70;;
43998;SDS011;51319;52.162;5.302;2023-11-19T01:15:20;59.70;;;7.97;;
43998;SDS011;51319;52.162;5.302;2023-11-19T01:17:47;64.97;;;8.35;;
43998;SDS011;51319;52.162;5.302;2023-11-19T01:22:47;66.10;;;8.85;;
43998;SDS011;51319;52.162;5.302;2023-11-19T01:25:15;64.82;;;7.95;;
43998;SDS011;51319;52.162;5.302;2023-11-19T01:27:42;73.28;;;8.50;;
43998;SDS011;51319;52.162;5.302;2023-11-19T01:30:09;65.32;;;8.20;;
43998;SDS011;51319;52.162;5.302;2023-11-19T01:35:07;68.65;;;7.88;;
43998;SDS011;51319;52.162;5.302;2023-11-19T01:37:34;71.05;;;10.38;;
43998;SDS011;51319;52.162;5.302;2023-11-19T01:40:02;61.97;;;7.65;;
43998;SDS011;51319;52.162;5.302;2023-11-19T01:42:37;65.32;;;9.73;;
43998;SDS011;51319;52.162;5.302;2023-11-19T01:45:05;72.07;;;9.07;;
43998;SDS011;51319;52.162;5.302;2023-11-19T01:47:34;69.72;;;10.10;;
43998;SDS011;51319;52.162;5.302;2023-11-19T01:50:03;70.28;;;9.50;;
43998;SDS011;51319;52.162;5.302;2023-11-19T01:52:33;64.75;;;9.95;;
43998;SDS011;51319;52.162;5.302;2023-11-19T01:55:06;79.13;;;10.88;;
43998;SDS011;51319;52.162;5.302;2023-11-19T01:57:36;68.72;;;8.88;;
43998;SDS011;51319;52.162;5.302;2023-11-19T02:00:05;80.00;;;10.05;;
43998;SDS011;51319;52.162;5.302;2023-11-19T02:02:33;77.63;;;10.15;;
43998;SDS011;51319;52.162;5.302;2023-11-19T02:05:01;83.47;;;9.32;;
43998;SDS011;51319;52.162;5.302;2023-11-19T02:07:28;68.97;;;10.07;;
43998;SDS011;51319;52.162;5.302;2023-11-19T02:09:55;93.85;;;10.43;;
43998;SDS011;51319;52.162;5.302;2023-11-19T02:12:26;62.60;;;9.70;;
43998;SDS011;51319;52.162;5.302;2023-11-19T02:14:57;85.13;;;10.30;;
43998;SDS011;51319;52.162;5.302;2023-11-19T02:17:26;74.47;;;9.82;;
43998;SDS011;51319;52.162;5.302;2023-11-19T02:19:54;81.63;;;11.50;;
43998;SDS011;51319;52.162;5.302;2023-11-19T02:22:21;71.03;;;10.20;;
43998;SDS011;51319;52.162;5.302;2023-11-19T02:24:49;91.45;;;11.25;;
43998;SDS011;51319;52.162;5.302;2023-11-19T02:27:26;83.85;;;10.50;;
43998;SDS011;51319;52.162;5.302;2023-11-19T02:30:02;79.88;;;10.50;;
43998;SDS011;51319;52.162;5.302;2023-11-19T02:32:32;71.97;;;9.43;;
43998;SDS011;51319;52.162;5.302;2023-11-19T02:34:59;87.82;;;10.82;;
43998;SDS011;51319;52.162;5.302;2023-11-19T02:37:29;78.32;;;10.23;;
43998;SDS011;51319;52.162;5.302;2023-11-19T02:39:56;77.70;;;10.10;;
43998;SDS011;51319;52.162;5.302;2023-11-19T02:42:29;70.80;;;8.40;;
43998;SDS011;51319;52.162;5.302;2023-11-19T02:44:56;81.55;;;8.82;;
43998;SDS011;51319;52.162;5.302;2023-11-19T02:47:23;81.85;;;11.65;;
43998;SDS011;51319;52.162;5.302;2023-11-19T02:49:50;76.13;;;11.13;;
43998;SDS011;51319;52.162;5.302;2023-11-19T02:52:19;75.43;;;10.70;;
43998;SDS011;51319;52.162;5.302;2023-11-19T02:54:47;75.28;;;10.10;;
43998;SDS011;51319;52.162;5.302;2023-11-19T02:57:14;84.63;;;10.82;;
43998;SDS011;51319;52.162;5.302;2023-11-19T02:59:44;66.78;;;10.68;;
43998;SDS011;51319;52.162;5.302;2023-11-19T03:02:11;76.20;;;11.02;;
43998;SDS011;51319;52.162;5.302;2023-11-19T03:04:38;83.18;;;10.98;;
43998;SDS011;51319;52.162;5.302;2023-11-19T03:07:12;94.15;;;11.60;;
43998;SDS011;51319;52.162;5.302;2023-11-19T03:09:40;78.07;;;11.43;;
43998;SDS011;51319;52.162;5.302;2023-11-19T03:12:07;96.50;;;11.93;;
43998;SDS011;51319;52.162;5.302;2023-11-19T03:14:34;100.90;;;13.68;;
43998;SDS011;51319;52.162;5.302;2023-11-19T03:17:01;82.30;;;11.07;;
43998;SDS011;51319;52.162;5.302;2023-11-19T03:19:30;89.90;;;12.27;;
43998;SDS011;51319;52.162;5.302;2023-11-19T03:21:57;80.53;;;12.55;;
43998;SDS011;51319;52.162;5.302;2023-11-19T03:24:24;79.15;;;11.50;;
43998;SDS011;51319;52.162;5.302;2023-11-19T03:26:51;80.65;;;12.15;;
43998;SDS011;51319;52.162;5.302;2023-11-19T03:29:18;85.63;;;11.00;;
43998;SDS011;51319;52.162;5.302;2023-11-19T03:31:45;90.70;;;12.98;;
43998;SDS011;51319;52.162;5.302;2023-11-19T03:34:12;73.40;;;10.60;;
43998;SDS011;51319;52.162;5.302;2023-11-19T03:36:39;84.10;;;11.73;;
43998;SDS011;51319;52.162;5.302;2023-11-19T03:39:06;96.00;;;12.10;;
43998;SDS011;51319;52.162;5.302;2023-11-19T03:41:33;90.22;;;11.10;;
43998;SDS011;51319;52.162;5.302;2023-11-19T03:44:03;82.38;;;10.75;;
43998;SDS011;51319;52.162;5.302;2023-11-19T03:46:30;108.88;;;14.05;;
43998;SDS011;51319;52.162;5.302;2023-11-19T03:48:57;74.30;;;9.20;;
43998;SDS011;51319;52.162;5.302;2023-11-19T03:51:25;85.82;;;10.18;;
43998;SDS011;51319;52.162;5.302;2023-11-19T03:53:52;91.95;;;11.90;;
43998;SDS011;51319;52.162;5.302;2023-11-19T03:56:19;97.32;;;11.27;;
43998;SDS011;51319;52.162;5.302;2023-11-19T03:58:47;97.20;;;13.60;;
43998;SDS011;51319;52.162;5.302;2023-11-19T04:01:14;83.15;;;10.85;;
43998;SDS011;51319;52.162;5.302;2023-11-19T04:03:41;93.28;;;10.82;;
43998;SDS011;51319;52.162;5.302;2023-11-19T04:06:11;87.35;;;11.00;;
43998;SDS011;51319;52.162;5.302;2023-11-19T04:08:38;84.53;;;12.02;;
43998;SDS011;51319;52.162;5.302;2023-11-19T04:11:05;106.85;;;12.45;;
43998;SDS011;51319;52.162;5.302;2023-11-19T04:13:32;90.35;;;11.63;;
43998;SDS011;51319;52.162;5.302;2023-11-19T04:16:01;84.55;;;11.30;;
43998;SDS011;51319;52.162;5.302;2023-11-19T04:18:29;87.63;;;12.13;;
43998;SDS011;51319;52.162;5.302;2023-11-19T04:20:56;99.15;;;11.85;;
43998;SDS011;51319;52.162;5.302;2023-11-19T04:23:23;79.97;;;10.68;;
43998;SDS011;51319;52.162;5.302;2023-11-19T04:25:51;71.65;;;11.15;;
43998;SDS011;51319;52.162;5.302;2023-11-19T04:28:18;73.55;;;11.25;;
43998;SDS011;51319;52.162;5.302;2023-11-19T04:30:45;87.88;;;10.45;;
43998;SDS011;51319;52.162;5.302;2023-11-19T04:33:12;87.05;;;11.27;;
43998;SDS011;51319;52.162;5.302;2023-11-19T04:35:38;91.32;;;12.13;;
43998;SDS011;51319;52.162;5.302;2023-11-19T04:38:05;86.40;;;11.35;;
43998;SDS011;51319;52.162;5.302;2023-11-19T04:40:33;99.85;;;11.82;;
43998;SDS011;51319;52.162;5.302;2023-11-19T04:43:00;87.07;;;12.65;;
43998;SDS011;51319;52.162;5.302;2023-11-19T04:45:27;85.63;;;11.13;;
43998;SDS011;51319;52.162;5.302;2023-11-19T04:47:54;89.15;;;12.60;;
43998;SDS011;51319;52.162;5.302;2023-11-19T04:50:21;90.53;;;12.30;;
43998;SDS011;51319;52.162;5.302;2023-11-19T04:52:48;97.25;;;10.30;;
43998;SDS011;51319;52.162;5.302;2023-11-19T04:55:15;89.85;;;12.20;;
43998;SDS011;51319;52.162;5.302;2023-11-19T04:57:42;98.53;;;12.20;;
43998;SDS011;51319;52.162;5.302;2023-11-19T05:00:09;102.18;;;13.10;;
43998;SDS011;51319;52.162;5.302;2023-11-19T05:02:40;92.82;;;12.50;;
43998;SDS011;51319;52.162;5.302;2023-11-19T05:05:07;104.25;;;13.50;;
43998;SDS011;51319;52.162;5.302;2023-11-19T05:07:35;105.72;;;10.98;;
43998;SDS011;51319;52.162;5.302;2023-11-19T05:10:03;90.50;;;13.80;;
43998;SDS011;51319;52.162;5.302;2023-11-19T05:12:30;94.82;;;12.65;;
43998;SDS011;51319;52.162;5.302;2023-11-19T05:14:57;93.15;;;11.25;;
43998;SDS011;51319;52.162;5.302;2023-11-19T05:17:24;85.25;;;11.73;;
43998;SDS011;51319;52.162;5.302;2023-11-19T05:19:51;81.28;;;10.57;;
43998;SDS011;51319;52.162;5.302;2023-11-19T05:22:18;77.15;;;12.27;;
43998;SDS011;51319;52.162;5.302;2023-11-19T05:24:47;85.90;;;11.77;;
43998;SDS011;51319;52.162;5.302;2023-11-19T05:27:16;66.32;;;9.55;;
43998;SDS011;51319;52.162;5.302;2023-11-19T05:29:42;80.10;;;12.63;;
43998;SDS011;51319;52.162;5.302;2023-11-19T05:32:10;78.65;;;10.85;;
43998;SDS011;51319;52.162;5.302;2023-11-19T05:34:37;76.40;;;10.88;;
43998;SDS011;51319;52.162;5.302;2023-11-19T05:37:17;68.97;;;10.15;;
43998;SDS011;51319;52.162;5.302;2023-11-19T05:39:46;76.93;;;10.00;;
43998;SDS011;51319;52.162;5.302;2023-11-19T05:42:13;63.42;;;10.90;;
43998;SDS011;51319;52.162;5.302;2023-11-19T05:44:40;66.13;;;10.70;;
43998;SDS011;51319;52.162;5.302;2023-11-19T05:47:07;77.57;;;10.25;;
43998;SDS011;51319;52.162;5.302;2023-11-19T05:49:34;86.22;;;11.98;;
43998;SDS011;51319;52.162;5.302;2023-11-19T05:52:02;82.90;;;11.43;;
43998;SDS011;51319;52.162;5.302;2023-11-19T05:54:30;86.13;;;11.45;;
43998;SDS011;51319;52.162;5.302;2023-11-19T05:56:59;65.45;;;9.73;;
43998;SDS011;51319;52.162;5.302;2023-11-19T05:59:26;79.97;;;11.68;;
43998;SDS011;51319;52.162;5.302;2023-11-19T06:01:53;72.72;;;10.25;;
43998;SDS011;51319;52.162;5.302;2023-11-19T06:04:20;73.72;;;10.90;;
43998;SDS011;51319;52.162;5.302;2023-11-19T06:06:47;83.63;;;12.15;;
43998;SDS011;51319;52.162;5.302;2023-11-19T06:09:15;69.55;;;10.63;;
43998;SDS011;51319;52.162;5.302;2023-11-19T06:11:44;72.93;;;10.93;;
43998;SDS011;51319;52.162;5.302;2023-11-19T06:14:12;84.80;;;11.27;;
43998;SDS011;51319;52.162;5.302;2023-11-19T06:16:39;81.60;;;10.40;;
43998;SDS011;51319;52.162;5.302;2023-11-19T06:19:06;82.10;;;11.77;;
43998;SDS011;51319;52.162;5.302;2023-11-19T06:21:34;73.13;;;9.75;;
43998;SDS011;51319;52.162;5.302;2023-11-19T06:24:03;81.38;;;10.43;;
43998;SDS011;51319;52.162;5.302;2023-11-19T06:26:30;77.57;;;12.05;;
43998;SDS011;51319;52.162;5.302;2023-11-19T06:28:57;74.28;;;9.55;;
43998;SDS011;51319;52.162;5.302;2023-11-19T06:31:24;78.22;;;10.38;;
43998;SDS011;51319;52.162;5.302;2023-11-19T06:33:51;80.63;;;12.13;;
43998;SDS011;51319;52.162;5.302;2023-11-19T06:36:18;85.18;;;10.68;;
43998;SDS011;51319;52.162;5.302;2023-11-19T06:38:45;71.60;;;10.35;;
43998;SDS011;51319;52.162;5.302;2023-11-19T06:41:12;79.72;;;11.18;;
43998;SDS011;51319;52.162;5.302;2023-11-19T06:43:39;64.18;;;10.10;;
43998;SDS011;51319;52.162;5.302;2023-11-19T06:46:14;82.97;;;11.48;;
43998;SDS011;51319;52.162;5.302;2023-11-19T06:48:42;71.78;;;9.68;;
43998;SDS011;51319;52.162;5.302;2023-11-19T06:51:10;68.47;;;10.98;;
43998;SDS011;51319;52.162;5.302;2023-11-19T06:53:38;98.57;;;11.80;;
43998;SDS011;51319;52.162;5.302;2023-11-19T06:56:20;76.68;;;11.18;;
43998;SDS011;51319;52.162;5.302;2023-11-19T06:58:48;73.60;;;12.15;;
43998;SDS011;51319;52.162;5.302;2023-11-19T07:01:15;70.28;;;9.93;;
43998;SDS011;51319;52.162;5.302;2023-11-19T07:03:43;77.90;;;10.40;;
43998;SDS011;51319;52.162;5.302;2023-11-19T07:06:11;66.10;;;10.45;;
43998;SDS011;51319;52.162;5.302;2023-11-19T07:08:40;70.30;;;10.02;;
43998;SDS011;51319;52.162;5.302;2023-11-19T07:11:08;71.95;;;10.60;;
43998;SDS011;51319;52.162;5.302;2023-11-19T07:13:36;79.95;;;11.82;;
43998;SDS011;51319;52.162;5.302;2023-11-19T07:16:03;62.95;;;9.50;;
43998;SDS011;51319;52.162;5.302;2023-11-19T07:18:31;61.47;;;8.98;;
43998;SDS011;51319;52.162;5.302;2023-11-19T07:20:58;74.43;;;10.75;;
43998;SDS011;51319;52.162;5.302;2023-11-19T07:23:26;74.90;;;10.80;;
43998;SDS011;51319;52.162;5.302;2023-11-19T07:25:53;68.25;;;9.85;;
43998;SDS011;51319;52.162;5.302;2023-11-19T07:28:20;73.47;;;9.68;;
43998;SDS011;51319;52.162;5.302;2023-11-19T07:30:47;85.97;;;11.07;;
43998;SDS011;51319;52.162;5.302;2023-11-19T07:33:13;79.35;;;10.63;;
43998;SDS011;51319;52.162;5.302;2023-11-19T07:35:42;71.68;;;10.32;;
43998;SDS011;51319;52.162;5.302;2023-11-19T07:38:09;69.93;;;10.45;;
43998;SDS011;51319;52.162;5.302;2023-11-19T07:40:37;77.32;;;9.75;;
43998;SDS011;51319;52.162;5.302;2023-11-19T07:43:04;76.00;;;10.93;;
43998;SDS011;51319;52.162;5.302;2023-11-19T07:45:31;73.30;;;9.73;;
43998;SDS011;51319;52.162;5.302;2023-11-19T07:47:58;74.00;;;10.40;;
43998;SDS011;51319;52.162;5.302;2023-11-19T07:50:25;71.47;;;10.00;;
43998;SDS011;51319;52.162;5.302;2023-11-19T07:52:52;77.82;;;11.10;;
43998;SDS011;51319;52.162;5.302;2023-11-19T07:55:20;61.47;;;8.80;;
43998;SDS011;51319;52.162;5.302;2023-11-19T07:57:47;73.90;;;9.98;;
43998;SDS011;51319;52.162;5.302;2023-11-19T08:00:15;59.20;;;10.38;;
43998;SDS011;51319;52.162;5.302;2023-11-19T08:02:42;71.85;;;9.20;;
43998;SDS011;51319;52.162;5.302;2023-11-19T08:05:10;75.50;;;10.45;;
43998;SDS011;51319;52.162;5.302;2023-11-19T08:07:38;66.50;;;9.70;;
43998;SDS011;51319;52.162;5.302;2023-11-19T08:10:06;69.75;;;10.73;;
43998;SDS011;51319;52.162;5.302;2023-11-19T08:12:36;58.58;;;9.02;;
43998;SDS011;51319;52.162;5.302;2023-11-19T08:15:03;72.28;;;11.43;;
43998;SDS011;51319;52.162;5.302;2023-11-19T08:17:34;71.78;;;10.10;;
43998;SDS011;51319;52.162;5.302;2023-11-19T08:20:01;62.22;;;10.93;;
43998;SDS011;51319;52.162;5.302;2023-11-19T08:22:28;62.50;;;9.68;;
43998;SDS011;51319;52.162;5.302;2023-11-19T08:24:55;74.70;;;10.45;;
43998;SDS011;51319;52.162;5.302;2023-11-19T08:27:22;63.20;;;10.85;;
43998;SDS011;51319;52.162;5.302;2023-11-19T08:29:53;75.63;;;11.20;;
43998;SDS011;51319;52.162;5.302;2023-11-19T08:32:24;78.28;;;12.05;;
43998;SDS011;51319;52.162;5.302;2023-11-19T08:34:54;70.25;;;14.13;;
43998;SDS011;51319;52.162;5.302;2023-11-19T08:37:23;70.85;;;11.32;;
43998;SDS011;51319;52.162;5.302;2023-11-19T08:39:52;92.45;;;24.05;;
43998;SDS011;51319;52.162;5.302;2023-11-19T08:42:19;92.30;;;18.77;;
43998;SDS011;51319;52.162;5.302;2023-11-19T08:44:48;70.57;;;12.30;;
43998;SDS011;51319;52.162;5.302;2023-11-19T08:47:16;79.22;;;14.73;;
43998;SDS011;51319;52.162;5.302;2023-11-19T08:49:51;77.20;;;13.02;;
43998;SDS011;51319;52.162;5.302;2023-11-19T08:52:22;69.35;;;11.23;;
43998;SDS011;51319;52.162;5.302;2023-11-19T08:54:49;60.67;;;9.73;;
43998;SDS011;51319;52.162;5.302;2023-11-19T08:57:23;66.50;;;12.23;;
43998;SDS011;51319;52.162;5.302;2023-11-19T08:59:50;90.20;;;21.42;;
43998;SDS011;51319;52.162;5.302;2023-11-19T09:02:17;54.67;;;11.25;;
43998;SDS011;51319;52.162;5.302;2023-11-19T09:04:44;61.28;;;10.02;;
43998;SDS011;51319;52.162;5.302;2023-11-19T09:07:12;59.08;;;9.13;;
43998;SDS011;51319;52.162;5.302;2023-11-19T09:09:38;66.15;;;10.00;;
43998;SDS011;51319;52.162;5.302;2023-11-19T09:12:06;64.22;;;11.02;;
43998;SDS011;51319;52.162;5.302;2023-11-19T09:14:33;62.13;;;10.32;;
43998;SDS011;51319;52.162;5.302;2023-11-19T09:17:00;56.72;;;9.25;;
43998;SDS011;51319;52.162;5.302;2023-11-19T09:19:32;62.90;;;7.95;;
43998;SDS011;51319;52.162;5.302;2023-11-19T09:21:59;55.70;;;8.13;;
43998;SDS011;51319;52.162;5.302;2023-11-19T09:24:26;61.78;;;8.32;;
43998;SDS011;51319;52.162;5.302;2023-11-19T09:26:55;67.18;;;11.05;;
43998;SDS011;51319;52.162;5.302;2023-11-19T09:29:22;63.67;;;11.15;;
43998;SDS011;51319;52.162;5.302;2023-11-19T09:31:50;54.08;;;9.38;;
43998;SDS011;51319;52.162;5.302;2023-11-19T09:34:17;67.88;;;10.18;;
43998;SDS011;51319;52.162;5.302;2023-11-19T09:36:44;71.38;;;9.80;;
43998;SDS011;51319;52.162;5.302;2023-11-19T09:39:11;53.25;;;10.52;;
43998;SDS011;51319;52.162;5.302;2023-11-19T09:41:41;66.50;;;11.10;;
43998;SDS011;51319;52.162;5.302;2023-11-19T09:44:08;71.20;;;12.10;;
43998;SDS011;51319;52.162;5.302;2023-11-19T09:46:38;59.22;;;11.45;;
43998;SDS011;51319;52.162;5.302;2023-11-19T09:49:08;66.00;;;9.73;;
43998;SDS011;51319;52.162;5.302;2023-11-19T09:51:36;57.17;;;8.50;;
43998;SDS011;51319;52.162;5.302;2023-11-19T09:54:03;55.55;;;8.48;;
43998;SDS011;51319;52.162;5.302;2023-11-19T09:56:30;70.07;;;10.05;;
43998;SDS011;51319;52.162;5.302;2023-11-19T09:58:59;54.30;;;9.90;;
43998;SDS011;51319;52.162;5.302;2023-11-19T10:01:26;52.33;;;8.68;;
43998;SDS011;51319;52.162;5.302;2023-11-19T10:03:55;75.00;;;10.20;;
43998;SDS011;51319;52.162;5.302;2023-11-19T10:06:22;63.15;;;10.10;;
43998;SDS011;51319;52.162;5.302;2023-11-19T10:08:51;46.08;;;9.60;;
43998;SDS011;51319;52.162;5.302;2023-11-19T10:11:18;58.88;;;8.60;;
43998;SDS011;51319;52.162;5.302;2023-11-19T10:13:45;56.00;;;8.35;;
43998;SDS011;51319;52.162;5.302;2023-11-19T10:16:14;54.88;;;11.02;;
43998;SDS011;51319;52.162;5.302;2023-11-19T10:18:45;63.30;;;9.23;;
43998;SDS011;51319;52.162;5.302;2023-11-19T10:21:13;49.25;;;9.45;;
43998;SDS011;51319;52.162;5.302;2023-11-19T10:26:19;47.70;;;8.77;;
43998;SDS011;51319;52.162;5.302;2023-11-19T10:28:47;41.58;;;8.20;;
43998;SDS011;51319;52.162;5.302;2023-11-19T10:31:15;50.30;;;9.20;;
43998;SDS011;51319;52.162;5.302;2023-11-19T10:33:44;56.75;;;9.95;;
43998;SDS011;51319;52.162;5.302;2023-11-19T10:36:12;47.90;;;10.40;;
43998;SDS011;51319;52.162;5.302;2023-11-19T10:38:40;51.88;;;8.98;;
43998;SDS011;51319;52.162;5.302;2023-11-19T10:41:27;51.50;;;8.68;;
43998;SDS011;51319;52.162;5.302;2023-11-19T10:43:58;65.10;;;10.27;;
43998;SDS011;51319;52.162;5.302;2023-11-19T10:46:41;49.38;;;8.70;;
43998;SDS011;51319;52.162;5.302;2023-11-19T10:49:10;49.75;;;10.05;;
43998;SDS011;51319;52.162;5.302;2023-11-19T10:51:37;40.67;;;7.50;;
43998;SDS011;51319;52.162;5.302;2023-11-19T10:54:11;54.67;;;9.65;;
43998;SDS011;51319;52.162;5.302;2023-11-19T10:56:43;53.70;;;9.57;;
43998;SDS011;51319;52.162;5.302;2023-11-19T10:59:13;44.47;;;7.53;;
43998;SDS011;51319;52.162;5.302;2023-11-19T11:01:44;47.50;;;8.90;;
43998;SDS011;51319;52.162;5.302;2023-11-19T11:04:14;44.00;;;9.02;;
43998;SDS011;51319;52.162;5.302;2023-11-19T11:06:46;41.47;;;7.40;;
43998;SDS011;51319;52.162;5.302;2023-11-19T11:09:13;49.67;;;9.40;;
43998;SDS011;51319;52.162;5.302;2023-11-19T11:11:49;54.58;;;9.43;;
43998;SDS011;51319;52.162;5.302;2023-11-19T11:14:18;38.33;;;7.60;;
43998;SDS011;51319;52.162;5.302;2023-11-19T11:16:48;44.15;;;8.48;;
43998;SDS011;51319;52.162;5.302;2023-11-19T11:19:16;39.60;;;7.38;;
43998;SDS011;51319;52.162;5.302;2023-11-19T11:21:47;44.85;;;8.73;;
43998;SDS011;51319;52.162;5.302;2023-11-19T11:30:13;44.38;;;8.27;;
43998;SDS011;51319;52.162;5.302;2023-11-19T11:32:54;42.47;;;7.15;;
43998;SDS011;51319;52.162;5.302;2023-11-19T11:38:40;38.65;;;6.95;;
43998;SDS011;51319;52.162;5.302;2023-11-19T11:41:15;37.28;;;7.97;;
43998;SDS011;51319;52.162;5.302;2023-11-19T11:43:49;35.03;;;7.35;;
43998;SDS011;51319;52.162;5.302;2023-11-19T11:49:01;40.92;;;7.13;;
43998;SDS011;51319;52.162;5.302;2023-11-19T11:59:50;53.75;;;8.93;;
43998;SDS011;51319;52.162;5.302;2023-11-19T12:02:20;53.03;;;9.70;;
43998;SDS011;51319;52.162;5.302;2023-11-19T12:04:49;50.42;;;7.78;;
43998;SDS011;51319;52.162;5.302;2023-11-19T12:07:19;45.05;;;7.00;;
43998;SDS011;51319;52.162;5.302;2023-11-19T12:10:09;51.72;;;8.13;;
43998;SDS011;51319;52.162;5.302;2023-11-19T12:12:38;48.33;;;8.10;;
43998;SDS011;51319;52.162;5.302;2023-11-19T12:15:07;38.60;;;7.50;;
43998;SDS011;51319;52.162;5.302;2023-11-19T12:17:49;50.95;;;9.02;;
43998;SDS011;51319;52.162;5.302;2023-11-19T12:20:17;36.75;;;6.97;;
43998;SDS011;51319;52.162;5.302;2023-11-19T12:25:16;39.38;;;6.38;;
43998;SDS011;51319;52.162;5.302;2023-11-19T12:27:49;40.50;;;6.78;;
43998;SDS011;51319;52.162;5.302;2023-11-19T12:30:23;50.47;;;8.23;;
43998;SDS011;51319;52.162;5.302;2023-11-19T12:32:52;43.55;;;7.43;;
43998;SDS011;51319;52.162;5.302;2023-11-19T12:35:21;39.03;;;7.28;;
43998;SDS011;51319;52.162;5.302;2023-11-19T12:37:49;38.65;;;7.35;;
43998;SDS011;51319;52.162;5.302;2023-11-19T12:40:24;32.55;;;8.63;;
43998;SDS011;51319;52.162;5.302;2023-11-19T12:42:52;35.00;;;6.47;;
43998;SDS011;51319;52.162;5.302;2023-11-19T12:45:23;35.05;;;6.40;;
43998;SDS011;51319;52.162;5.302;2023-11-19T12:48:06;38.42;;;7.63;;
43998;SDS011;51319;52.162;5.302;2023-11-19T12:53:49;32.50;;;5.60;;
43998;SDS011;51319;52.162;5.302;2023-11-19T12:56:21;62.63;;;15.13;;
43998;SDS011;51319;52.162;5.302;2023-11-19T12:58:52;50.33;;;11.07;;
43998;SDS011;51319;52.162;5.302;2023-11-19T13:01:22;42.72;;;9.48;;
43998;SDS011;51319;52.162;5.302;2023-11-19T13:03:50;41.42;;;8.40;;
43998;SDS011;51319;52.162;5.302;2023-11-19T13:06:19;27.40;;;6.80;;
43998;SDS011;51319;52.162;5.302;2023-11-19T13:08:51;38.70;;;6.57;;
43998;SDS011;51319;52.162;5.302;2023-11-19T13:11:34;36.67;;;6.32;;
43998;SDS011;51319;52.162;5.302;2023-11-19T13:14:03;41.42;;;6.47;;
43998;SDS011;51319;52.162;5.302;2023-11-19T13:16:31;28.85;;;5.70;;
43998;SDS011;51319;52.162;5.302;2023-11-19T13:18:59;37.55;;;6.53;;
43998;SDS011;51319;52.162;5.302;2023-11-19T13:21:29;39.75;;;6.13;;
43998;SDS011;51319;52.162;5.302;2023-11-19T13:23:59;27.55;;;6.00;;
43998;SDS011;51319;52.162;5.302;2023-11-19T13:26:28;32.03;;;6.30;;
43998;SDS011;51319;52.162;5.302;2023-11-19T13:28:55;39.05;;;6.70;;
43998;SDS011;51319;52.162;5.302;2023-11-19T13:31:22;36.63;;;6.13;;
43998;SDS011;51319;52.162;5.302;2023-11-19T13:33:49;41.85;;;7.75;;
43998;SDS011;51319;52.162;5.302;2023-11-19T13:36:16;49.40;;;8.35;;
43998;SDS011;51319;52.162;5.302;2023-11-19T13:38:44;44.17;;;8.43;;
43998;SDS011;51319;52.162;5.302;2023-11-19T13:41:11;43.83;;;8.32;;
43998;SDS011;51319;52.162;5.302;2023-11-19T13:43:40;43.47;;;8.63;;
43998;SDS011;51319;52.162;5.302;2023-11-19T13:46:07;39.75;;;7.15;;
43998;SDS011;51319;52.162;5.302;2023-11-19T13:48:37;45.10;;;7.45;;
43998;SDS011;51319;52.162;5.302;2023-11-19T13:51:04;38.83;;;8.55;;
43998;SDS011;51319;52.162;5.302;2023-11-19T13:53:32;51.42;;;10.77;;
43998;SDS011;51319;52.162;5.302;2023-11-19T13:56:17;40.90;;;8.35;;
43998;SDS011;51319;52.162;5.302;2023-11-19T13:58:44;39.53;;;6.93;;
43998;SDS011;51319;52.162;5.302;2023-11-19T14:01:11;40.40;;;6.30;;
43998;SDS011;51319;52.162;5.302;2023-11-19T14:03:39;47.72;;;8.88;;
43998;SDS011;51319;52.162;5.302;2023-11-19T14:06:08;38.08;;;6.25;;
43998;SDS011;51319;52.162;5.302;2023-11-19T14:08:35;43.40;;;8.13;;
43998;SDS011;51319;52.162;5.302;2023-11-19T14:11:03;40.08;;;8.90;;
43998;SDS011;51319;52.162;5.302;2023-11-19T14:13:31;56.00;;;11.30;;
43998;SDS011;51319;52.162;5.302;2023-11-19T14:16:01;36.17;;;7.03;;
43998;SDS011;51319;52.162;5.302;2023-11-19T14:18:29;59.97;;;13.05;;
43998;SDS011;51319;52.162;5.302;2023-11-19T14:20:56;51.55;;;13.13;;
43998;SDS011;51319;52.162;5.302;2023-11-19T14:23:23;72.32;;;19.15;;
43998;SDS011;51319;52.162;5.302;2023-11-19T14:25:50;59.40;;;16.02;;
43998;SDS011;51319;52.162;5.302;2023-11-19T14:28:17;47.97;;;8.88;;
43998;SDS011;51319;52.162;5.302;2023-11-19T14:30:44;58.17;;;15.77;;
43998;SDS011;51319;52.162;5.302;2023-11-19T14:33:12;54.33;;;9.73;;
43998;SDS011;51319;52.162;5.302;2023-11-19T14:35:39;51.65;;;10.50;;
43998;SDS011;51319;52.162;5.302;2023-11-19T14:38:06;48.78;;;9.40;;
43998;SDS011;51319;52.162;5.302;2023-11-19T14:40:36;64.82;;;19.70;;
43998;SDS011;51319;52.162;5.302;2023-11-19T14:43:06;41.40;;;9.95;;
43998;SDS011;51319;52.162;5.302;2023-11-19T14:45:33;47.92;;;10.93;;
43998;SDS011;51319;52.162;5.302;2023-11-19T14:48:10;40.42;;;9.15;;
43998;SDS011;51319;52.162;5.302;2023-11-19T14:50:37;49.15;;;11.98;;
43998;SDS011;51319;52.162;5.302;2023-11-19T14:53:04;90.97;;;24.33;;
43998;SDS011;51319;52.162;5.302;2023-11-19T14:55:31;49.50;;;9.20;;
43998;SDS011;51319;52.162;5.302;2023-11-19T14:57:58;40.78;;;8.52;;
43998;SDS011;51319;52.162;5.302;2023-11-19T15:00:35;49.05;;;10.63;;
43998;SDS011;51319;52.162;5.302;2023-11-19T15:03:02;57.28;;;9.57;;
43998;SDS011;51319;52.162;5.302;2023-11-19T15:05:29;47.55;;;9.82;;
43998;SDS011;51319;52.162;5.302;2023-11-19T15:07:57;47.80;;;8.90;;
43998;SDS011;51319;52.162;5.302;2023-11-19T15:10:24;54.60;;;8.57;;